createdAt,value
2023-05-06T00:01:53.326Z,96004.13
2023-05-06T00:04:20.017Z,96002.69
2023-05-06T00:06:47.175Z,96001.97
2023-05-06T00:09:13.710Z,95990.34
2023-05-06T00:11:40.611Z,95997.97
2023-05-06T00:14:07.157Z,95992.41
2023-05-06T00:16:33.695Z,95987.13
2023-05-06T00:19:00.663Z,95985.13
2023-05-06T00:21:27.408Z,95983.69
2023-05-06T00:23:53.897Z,95988.09
2023-05-06T00:26:20.382Z,95979.94
2023-05-06T00:28:46.928Z,95974.75
2023-05-06T00:31:13.509Z,95967.28
2023-05-06T00:33:40.110Z,95971.41
2023-05-06T00:36:06.946Z,95967.91
2023-05-06T00:38:33.427Z,95972.38
2023-05-06T00:40:59.888Z,95969.25
2023-05-06T00:43:26.390Z,95974.31
2023-05-06T00:45:53.190Z,95972.69
2023-05-06T00:48:19.947Z,95966.28
2023-05-06T00:50:46.570Z,95971.16
2023-05-06T00:53:13.131Z,95968.03
2023-05-06T00:55:39.904Z,95966.41
2023-05-06T00:58:06.445Z,95964.72
2023-05-06T01:00:32.967Z,95964.50
2023-05-06T01:02:59.616Z,95958.44
2023-05-06T01:05:32.777Z,95963.47
2023-05-06T01:08:04.585Z,95960.88
2023-05-06T01:10:42.926Z,95965.94
2023-05-06T01:13:21.508Z,95959.94
2023-05-06T01:15:54.203Z,95955.53
2023-05-06T01:18:26.419Z,95955.88
2023-05-06T01:20:55.872Z,95956.63
2023-05-06T01:23:22.472Z,95958.22
2023-05-06T01:25:50.822Z,95956.91
2023-05-06T01:28:17.626Z,95953.28
2023-05-06T01:30:47.127Z,95956.41
2023-05-06T01:33:45.086Z,95956.22
2023-05-06T01:36:40.988Z,95966.56
2023-05-06T01:39:29.706Z,95963.72
2023-05-06T01:41:57.688Z,95965.19
2023-05-06T01:44:27.605Z,95964.78
2023-05-06T01:46:56.145Z,95956.84
2023-05-06T01:49:26.022Z,95952.28
2023-05-06T01:51:53.744Z,95956.78
2023-05-06T01:54:20.471Z,95956.56
2023-05-06T01:56:47.058Z,95961.28
2023-05-06T01:59:15.164Z,95952.50
2023-05-06T02:01:41.728Z,95963.03
2023-05-06T02:04:08.357Z,95959.78
2023-05-06T02:06:35.698Z,95949.31
2023-05-06T02:09:02.272Z,95958.44
2023-05-06T02:11:30.467Z,95945.66
2023-05-06T02:14:02.768Z,95960.66
2023-05-06T02:16:32.482Z,95963.75
2023-05-06T02:18:59.248Z,95968.78
2023-05-06T02:21:26.500Z,95961.22
2023-05-06T02:23:53.013Z,95961.69
2023-05-06T02:26:19.544Z,95966.78
2023-05-06T02:28:46.036Z,95968.63
2023-05-06T02:31:16.224Z,95963.63
2023-05-06T02:33:44.981Z,95972.06
2023-05-06T02:36:11.516Z,95962.84
2023-05-06T02:38:38.023Z,95968.56
2023-05-06T02:41:04.574Z,95958.56
2023-05-06T02:43:31.158Z,95956.38
2023-05-06T02:45:58.412Z,95958.38
2023-05-06T02:48:25.659Z,95951.03
2023-05-06T02:50:52.140Z,95953.72
2023-05-06T02:53:18.677Z,95944.00
2023-05-06T02:55:45.175Z,95951.72
2023-05-06T02:58:11.640Z,95954.63
2023-05-06T03:00:38.169Z,95948.00
2023-05-06T03:03:04.739Z,95944.28
2023-05-06T03:05:31.463Z,95945.84
2023-05-06T03:07:58.577Z,95947.41
2023-05-06T03:10:25.541Z,95940.56
2023-05-06T03:12:52.076Z,95946.56
2023-05-06T03:15:18.948Z,95936.34
2023-05-06T03:17:47.527Z,95941.63
2023-05-06T03:20:14.394Z,95942.44
2023-05-06T03:22:47.545Z,95943.69
2023-05-06T03:25:14.257Z,95933.00
2023-05-06T03:27:41.842Z,95931.91
2023-05-06T03:30:16.277Z,95932.28
2023-05-06T03:32:45.243Z,95941.06
2023-05-06T03:35:16.497Z,95934.41
2023-05-06T03:37:46.832Z,95940.50
2023-05-06T03:40:13.709Z,95930.34
2023-05-06T03:42:40.494Z,95933.78
2023-05-06T03:45:08.002Z,95937.50
2023-05-06T03:47:36.258Z,95939.28
2023-05-06T03:50:04.777Z,95937.25
2023-05-06T03:52:33.523Z,95928.84
2023-05-06T03:55:00.739Z,95933.69
2023-05-06T03:57:29.516Z,95930.25
2023-05-06T03:59:56.436Z,95923.63
2023-05-06T04:02:24.862Z,95933.75
2023-05-06T04:04:51.510Z,95927.19
2023-05-06T04:07:18.020Z,95934.53
2023-05-06T04:09:44.555Z,95938.31
2023-05-06T04:12:11.193Z,95943.66
2023-05-06T04:14:37.755Z,95951.34
2023-05-06T04:17:05.456Z,95950.56
2023-05-06T04:19:33.665Z,95943.38
2023-05-06T04:22:00.221Z,95957.63
2023-05-06T04:24:28.482Z,95955.06
2023-05-06T04:26:56.093Z,95960.03
2023-05-06T04:29:23.277Z,95962.97
2023-05-06T04:31:59.607Z,95965.41
2023-05-06T04:34:29.001Z,95970.34
2023-05-06T04:36:59.226Z,95971.91
2023-05-06T04:39:48.756Z,95966.91
2023-05-06T04:42:18.788Z,95972.56
2023-05-06T04:44:54.850Z,95977.72
2023-05-06T04:47:27.271Z,95974.81
2023-05-06T04:49:54.730Z,95986.38
2023-05-06T04:52:22.110Z,95991.53
2023-05-06T04:54:48.653Z,95988.34
2023-05-06T04:57:15.665Z,95991.19
2023-05-06T04:59:44.339Z,95998.28
2023-05-06T05:02:11.930Z,95994.00
2023-05-06T05:04:41.203Z,95999.50
2023-05-06T05:07:08.133Z,95994.13
2023-05-06T05:09:35.699Z,96000.53
2023-05-06T05:12:03.284Z,95997.84
2023-05-06T05:14:33.076Z,95997.75
2023-05-06T05:17:00.173Z,96008.06
2023-05-06T05:19:26.780Z,96004.53
2023-05-06T05:21:55.030Z,95998.16
2023-05-06T05:24:23.521Z,95995.09
2023-05-06T05:26:50.131Z,96000.59
2023-05-06T05:29:17.247Z,96005.31
2023-05-06T05:31:45.448Z,96008.16
2023-05-06T05:34:12.579Z,96010.00
2023-05-06T05:36:39.951Z,96006.28
2023-05-06T05:39:10.131Z,96017.44
2023-05-06T05:41:42.594Z,96009.38
2023-05-06T05:44:09.084Z,96012.63
2023-05-06T05:46:36.139Z,96011.34
2023-05-06T05:49:04.748Z,96015.16
2023-05-06T05:51:31.279Z,96018.03
2023-05-06T05:53:58.734Z,96016.59
2023-05-06T05:56:26.829Z,96027.16
2023-05-06T05:58:53.805Z,96024.03
2023-05-06T06:01:20.384Z,96016.47
2023-05-06T06:03:47.742Z,96025.59
2023-05-06T06:06:14.440Z,96023.66
2023-05-06T06:08:41.503Z,96023.38
2023-05-06T06:11:09.029Z,96030.72
2023-05-06T06:13:40.001Z,96026.03
2023-05-06T06:16:07.706Z,96027.38
2023-05-06T06:18:34.372Z,96032.09
2023-05-06T06:21:00.997Z,96032.41
2023-05-06T06:23:27.511Z,96032.28
2023-05-06T06:25:54.077Z,96039.16
2023-05-06T06:28:21.169Z,96048.78
2023-05-06T06:30:47.728Z,96052.34
2023-05-06T06:33:14.195Z,96052.22
2023-05-06T06:35:40.905Z,96046.72
2023-05-06T06:38:07.373Z,96040.38
2023-05-06T06:40:33.916Z,96043.69
2023-05-06T06:43:01.105Z,96052.94
2023-05-06T06:45:46.550Z,96052.25
2023-05-06T06:48:13.112Z,96059.63
2023-05-06T06:50:39.668Z,96055.78
2023-05-06T06:53:06.566Z,96057.28
2023-05-06T06:55:33.286Z,96052.56
2023-05-06T06:57:59.718Z,96053.31
2023-05-06T07:00:26.366Z,96049.91
2023-05-06T07:02:53.900Z,96039.81
2023-05-06T07:05:20.464Z,96055.34
2023-05-06T07:07:46.972Z,96029.78
2023-05-06T07:10:13.785Z,96041.41
2023-05-06T07:12:40.243Z,96037.34
2023-05-06T07:15:08.856Z,96050.72
2023-05-06T07:17:35.957Z,96041.78
2023-05-06T07:20:02.880Z,96037.47
2023-05-06T07:22:29.324Z,96055.44
2023-05-06T07:24:55.815Z,96040.03
2023-05-06T07:27:22.314Z,96040.03
2023-05-06T07:29:48.747Z,96034.69
2023-05-06T07:32:15.203Z,96055.00
2023-05-06T07:34:41.636Z,96041.88
2023-05-06T07:37:08.249Z,96021.97
2023-05-06T07:39:34.855Z,96054.16
2023-05-06T07:42:01.838Z,96051.06
2023-05-06T07:44:28.330Z,96058.03
2023-05-06T07:46:54.862Z,96057.31
2023-05-06T07:49:21.705Z,96060.03
2023-05-06T07:51:48.352Z,96058.53
2023-05-06T07:54:15.082Z,96069.66
2023-05-06T07:56:41.797Z,96081.84
2023-05-06T07:59:08.372Z,96083.03
2023-05-06T08:01:34.938Z,96078.53
2023-05-06T08:04:01.500Z,96042.94
2023-05-06T08:06:28.061Z,96094.00
2023-05-06T08:08:54.547Z,96082.84
2023-05-06T08:11:20.997Z,96079.88
2023-05-06T08:13:47.448Z,96090.22
2023-05-06T08:16:14.063Z,96101.03
2023-05-06T08:18:40.699Z,96094.84
2023-05-06T08:21:07.246Z,96088.44
2023-05-06T08:23:41.494Z,96091.47
2023-05-06T08:26:07.916Z,96081.34
2023-05-06T08:28:34.603Z,96094.50
2023-05-06T08:31:01.186Z,96097.66
2023-05-06T08:33:27.839Z,96095.00
2023-05-06T08:35:57.546Z,96099.47
2023-05-06T08:38:25.871Z,96093.19
2023-05-06T08:40:54.547Z,96089.44
2023-05-06T08:43:22.549Z,96091.00
2023-05-06T08:45:49.426Z,96093.44
2023-05-06T08:48:16.651Z,96093.34
2023-05-06T08:50:43.476Z,96096.00
2023-05-06T08:53:14.030Z,96104.38
2023-05-06T08:55:42.518Z,96092.47
2023-05-06T08:58:13.287Z,96104.97
2023-05-06T09:00:39.943Z,96081.94
2023-05-06T09:03:10.693Z,96092.38
2023-05-06T09:05:39.298Z,96082.41
2023-05-06T09:08:05.791Z,96072.50
2023-05-06T09:10:37.768Z,96076.78
2023-05-06T09:13:04.257Z,96085.28
2023-05-06T09:15:43.284Z,96087.28
2023-05-06T09:18:11.017Z,96060.34
2023-05-06T09:20:42.040Z,96099.09
2023-05-06T09:23:09.612Z,96081.06
2023-05-06T09:25:36.951Z,96097.19
2023-05-06T09:28:13.289Z,96094.25
2023-05-06T09:30:42.170Z,96083.63
2023-05-06T09:33:09.369Z,96100.16
2023-05-06T09:35:43.612Z,96089.34
2023-05-06T09:38:10.525Z,96084.22
2023-05-06T09:40:38.055Z,96099.72
2023-05-06T09:43:05.668Z,96084.81
2023-05-06T09:45:32.995Z,96091.41
2023-05-06T09:48:00.261Z,96046.03
2023-05-06T09:50:27.332Z,96079.78
2023-05-06T09:52:55.986Z,96085.31
2023-05-06T09:55:23.480Z,96080.84
2023-05-06T09:57:58.143Z,96079.78
2023-05-06T10:00:28.155Z,96075.47
2023-05-06T10:02:55.101Z,96053.56
2023-05-06T10:05:22.779Z,96065.03
2023-05-06T10:07:52.103Z,96060.25
2023-05-06T10:10:18.926Z,96074.78
2023-05-06T10:12:48.953Z,96075.13
2023-05-06T10:15:15.728Z,96069.47
2023-05-06T10:17:45.210Z,96083.41
2023-05-06T10:20:13.927Z,96075.41
2023-05-06T10:22:40.325Z,96082.78
2023-05-06T10:25:25.479Z,96073.84
2023-05-06T10:27:52.765Z,96062.25
2023-05-06T10:30:20.082Z,96063.53
2023-05-06T10:32:46.779Z,96065.53
2023-05-06T10:35:27.508Z,96057.78
2023-05-06T10:37:55.059Z,96025.34
2023-05-06T10:40:23.085Z,96039.72
2023-05-06T10:42:49.552Z,96048.06
2023-05-06T10:45:16.584Z,96043.25
2023-05-06T10:47:55.495Z,96042.38
2023-05-06T10:50:26.229Z,96039.19
2023-05-06T10:52:57.731Z,96036.47
2023-05-06T10:55:34.859Z,96023.44
2023-05-06T10:58:12.714Z,96028.38
2023-05-06T11:00:39.266Z,96007.19
2023-05-06T11:03:18.681Z,96029.28
2023-05-06T11:05:52.303Z,96016.94
2023-05-06T11:08:26.285Z,96017.16
2023-05-06T11:10:53.990Z,96014.59
2023-05-06T11:13:23.467Z,96011.16
2023-05-06T11:15:51.927Z,96013.25
2023-05-06T11:18:24.433Z,96021.13
2023-05-06T11:21:02.330Z,96023.16
2023-05-06T11:23:49.349Z,96025.31
2023-05-06T11:26:16.469Z,96019.72
2023-05-06T11:28:45.132Z,96022.84
2023-05-06T11:31:13.051Z,96017.78
2023-05-06T11:33:49.770Z,96021.72
2023-05-06T11:36:18.182Z,96015.47
2023-05-06T11:38:56.323Z,96019.03
2023-05-06T11:41:23.464Z,96018.16
2023-05-06T11:43:51.749Z,95991.94
2023-05-06T11:46:23.579Z,96020.44
2023-05-06T11:49:17.202Z,96020.69
2023-05-06T11:51:43.700Z,96001.84
2023-05-06T11:54:11.000Z,95993.38
2023-05-06T11:56:49.678Z,95999.31
2023-05-06T11:59:16.638Z,96002.34
2023-05-06T12:01:44.073Z,95980.97
2023-05-06T12:04:12.695Z,96009.06
2023-05-06T12:06:40.060Z,96003.63
2023-05-06T12:09:10.223Z,96008.72
2023-05-06T12:11:37.956Z,96008.13
2023-05-06T12:14:06.910Z,96010.00
2023-05-06T12:16:35.477Z,96002.28
2023-05-06T12:19:03.023Z,95994.13
2023-05-06T12:21:30.429Z,96006.09
2023-05-06T12:23:59.596Z,95998.47
2023-05-06T12:26:31.862Z,95994.66
2023-05-06T12:29:07.695Z,95988.88
2023-05-06T12:31:34.700Z,96000.69
2023-05-06T12:34:01.425Z,95981.81
2023-05-06T12:36:28.174Z,95985.97
2023-05-06T12:38:59.571Z,95979.97
2023-05-06T12:41:37.289Z,95988.50
2023-05-06T12:44:24.315Z,95983.63
2023-05-06T12:46:51.956Z,95981.81
2023-05-06T12:49:18.417Z,95985.13
2023-05-06T12:51:47.122Z,95987.53
2023-05-06T12:54:30.667Z,95990.00
2023-05-06T12:56:57.406Z,95985.81
2023-05-06T12:59:25.972Z,95986.53
2023-05-06T13:01:52.542Z,95980.03
2023-05-06T13:04:19.100Z,95986.94
2023-05-06T13:06:46.279Z,95974.03
2023-05-06T13:09:15.203Z,95981.69
2023-05-06T13:11:41.901Z,95969.25
2023-05-06T13:14:09.045Z,95970.50
2023-05-06T13:16:35.686Z,95967.16
2023-05-06T13:19:03.328Z,95959.69
2023-05-06T13:21:29.815Z,95959.59
2023-05-06T13:23:56.339Z,95963.47
2023-05-06T13:26:22.924Z,95956.56
2023-05-06T13:28:49.626Z,95953.66
2023-05-06T13:31:16.191Z,95951.31
2023-05-06T13:33:42.731Z,95944.09
2023-05-06T13:36:09.587Z,95938.97
2023-05-06T13:38:36.216Z,95944.13
2023-05-06T13:41:02.937Z,95943.66
2023-05-06T13:43:29.489Z,95946.56
2023-05-06T13:45:56.268Z,95941.44
2023-05-06T13:48:22.892Z,95938.19
2023-05-06T13:50:49.551Z,95928.06
2023-05-06T13:53:16.513Z,95933.53
2023-05-06T13:55:43.608Z,95924.84
2023-05-06T13:58:10.972Z,95920.94
2023-05-06T14:00:37.500Z,95917.84
2023-05-06T14:03:04.380Z,95921.16
2023-05-06T14:05:31.100Z,95914.50
2023-05-06T14:07:57.729Z,95918.50
2023-05-06T14:10:24.343Z,95918.59
2023-05-06T14:12:51.306Z,95917.59
2023-05-06T14:15:17.917Z,95917.72
2023-05-06T14:17:44.509Z,95911.81
2023-05-06T14:20:11.400Z,95908.16
2023-05-06T14:22:40.623Z,95910.03
2023-05-06T14:25:08.099Z,95906.47
2023-05-06T14:27:34.887Z,95907.91
2023-05-06T14:30:02.509Z,95906.56
2023-05-06T14:32:29.191Z,95907.59
2023-05-06T14:34:56.020Z,95906.91
2023-05-06T14:37:22.552Z,95907.34
2023-05-06T14:39:49.718Z,95906.56
2023-05-06T14:42:16.605Z,95897.44
2023-05-06T14:44:45.082Z,95900.69
2023-05-06T14:47:11.549Z,95900.34
2023-05-06T14:49:38.049Z,95899.31
2023-05-06T14:52:04.613Z,95894.53
2023-05-06T14:54:31.223Z,95892.41
2023-05-06T14:57:01.268Z,95894.66
2023-05-06T14:59:28.060Z,95892.75
2023-05-06T15:01:56.344Z,95893.66
2023-05-06T15:04:22.942Z,95903.09
2023-05-06T15:06:49.499Z,95887.94
2023-05-06T15:09:16.082Z,95893.66
2023-05-06T15:11:44.128Z,95886.94
2023-05-06T15:14:10.820Z,95890.31
2023-05-06T15:16:37.404Z,95886.09
2023-05-06T15:19:04.564Z,95892.44
2023-05-06T15:21:31.585Z,95891.31
2023-05-06T15:23:58.317Z,95891.88
2023-05-06T15:26:24.895Z,95897.63
2023-05-06T15:28:51.438Z,95894.44
2023-05-06T15:31:18.118Z,95893.63
2023-05-06T15:33:44.730Z,95890.19
2023-05-06T15:36:11.279Z,95893.00
2023-05-06T15:38:57.658Z,95894.41
2023-05-06T15:41:30.641Z,95897.06
2023-05-06T15:43:58.335Z,95899.84
2023-05-06T15:46:26.546Z,95902.06
2023-05-06T15:49:09.059Z,95906.19
2023-05-06T15:51:39.921Z,95892.34
2023-05-06T15:54:06.795Z,95896.13
2023-05-06T15:56:39.437Z,95891.91
2023-05-06T15:59:08.385Z,95901.63
2023-05-06T16:01:53.859Z,95886.50
2023-05-06T16:04:22.414Z,95886.63
2023-05-06T16:06:49.562Z,95889.53
2023-05-06T16:09:16.066Z,95901.31
2023-05-06T16:11:42.551Z,95889.44
2023-05-06T16:14:09.053Z,95890.16
2023-05-06T16:16:36.075Z,95901.53
2023-05-06T16:19:02.624Z,95889.31
2023-05-06T16:21:29.213Z,95891.97
2023-05-06T16:23:56.111Z,95898.88
2023-05-06T16:26:22.842Z,95889.63
2023-05-06T16:28:49.347Z,95884.94
2023-05-06T16:31:16.062Z,95888.00
2023-05-06T16:33:42.647Z,95879.31
2023-05-06T16:36:09.295Z,95888.78
2023-05-06T16:38:36.333Z,95885.78
2023-05-06T16:41:02.846Z,95879.06
2023-05-06T16:43:29.356Z,95887.41
2023-05-06T16:45:55.908Z,95877.97
2023-05-06T16:48:22.608Z,95883.97
2023-05-06T16:50:49.184Z,95891.31
2023-05-06T16:53:17.267Z,95876.19
2023-05-06T16:55:49.004Z,95875.97
2023-05-06T16:58:15.966Z,95876.28
2023-05-06T17:00:42.657Z,95883.97
2023-05-06T17:03:09.468Z,95876.63
2023-05-06T17:05:36.468Z,95876.81
2023-05-06T17:08:07.059Z,95886.50
2023-05-06T17:10:33.708Z,95878.81
2023-05-06T17:13:00.302Z,95878.41
2023-05-06T17:15:26.854Z,95873.63
2023-05-06T17:17:53.496Z,95879.84
2023-05-06T17:20:20.194Z,95881.41
2023-05-06T17:22:46.994Z,95878.47
2023-05-06T17:25:13.837Z,95868.88
2023-05-06T17:27:40.437Z,95868.63
2023-05-06T17:30:09.616Z,95867.59
2023-05-06T17:32:36.502Z,95869.81
2023-05-06T17:35:03.364Z,95866.69
2023-05-06T17:37:31.031Z,95868.22
2023-05-06T17:39:57.875Z,95869.94
2023-05-06T17:42:24.464Z,95872.47
2023-05-06T17:44:51.113Z,95867.66
2023-05-06T17:47:17.742Z,95872.91
2023-05-06T17:49:45.100Z,95880.47
2023-05-06T17:52:11.676Z,95885.56
2023-05-06T17:54:38.263Z,95886.81
2023-05-06T17:57:04.734Z,95885.75
2023-05-06T17:59:31.448Z,95886.28
2023-05-06T18:01:57.976Z,95877.72
2023-05-06T18:04:24.496Z,95886.81
2023-05-06T18:06:51.335Z,95883.25
2023-05-06T18:09:17.951Z,95883.91
2023-05-06T18:11:44.500Z,95881.44
2023-05-06T18:14:11.368Z,95886.66
2023-05-06T18:16:38.203Z,95885.28
2023-05-06T18:19:05.206Z,95887.63
2023-05-06T18:21:33.918Z,95883.75
2023-05-06T18:24:05.914Z,95884.56
2023-05-06T18:26:45.360Z,95892.72
2023-05-06T18:29:12.876Z,95888.19
2023-05-06T18:31:39.807Z,95879.88
2023-05-06T18:34:06.790Z,95888.03
2023-05-06T18:36:34.943Z,95896.97
2023-05-06T18:39:02.511Z,95891.63
2023-05-06T18:41:29.135Z,95895.84
2023-05-06T18:43:55.627Z,95900.25
2023-05-06T18:46:22.653Z,95900.41
2023-05-06T18:48:49.230Z,95899.78
2023-05-06T18:51:17.379Z,95898.34
2023-05-06T18:53:45.078Z,95899.13
2023-05-06T18:56:14.116Z,95900.38
2023-05-06T18:58:41.146Z,95901.75
2023-05-06T19:01:10.045Z,95907.84
2023-05-06T19:03:37.395Z,95904.69
2023-05-06T19:06:07.650Z,95908.75
2023-05-06T19:08:34.281Z,95916.09
2023-05-06T19:11:01.538Z,95920.13
2023-05-06T19:13:28.336Z,95914.66
2023-05-06T19:15:55.069Z,95917.94
2023-05-06T19:18:21.670Z,95906.19
2023-05-06T19:20:48.205Z,95905.09
2023-05-06T19:23:14.708Z,95912.59
2023-05-06T19:25:41.233Z,95907.34
2023-05-06T19:28:07.926Z,95916.28
2023-05-06T19:30:35.332Z,95912.97
2023-05-06T19:33:02.989Z,95903.41
2023-05-06T19:35:29.592Z,95914.94
2023-05-06T19:37:56.184Z,95912.28
2023-05-06T19:40:22.818Z,95916.50
2023-05-06T19:42:49.524Z,95915.53
2023-05-06T19:45:18.135Z,95913.59
2023-05-06T19:47:45.782Z,95923.31
2023-05-06T19:50:13.013Z,95910.13
2023-05-06T19:52:40.112Z,95920.28
2023-05-06T19:55:07.283Z,95922.75
2023-05-06T19:57:33.998Z,95922.94
2023-05-06T20:00:05.102Z,95922.50
2023-05-06T20:02:32.892Z,95911.38
2023-05-06T20:05:00.458Z,95920.91
2023-05-06T20:07:27.437Z,95917.75
2023-05-06T20:09:55.895Z,95916.06
2023-05-06T20:12:23.488Z,95919.47
2023-05-06T20:14:50.165Z,95916.06
2023-05-06T20:17:16.941Z,95923.53
2023-05-06T20:19:44.582Z,95902.75
2023-05-06T20:22:11.791Z,95906.50
2023-05-06T20:24:38.306Z,95907.25
2023-05-06T20:27:04.817Z,95915.53
2023-05-06T20:29:31.447Z,95917.69
2023-05-06T20:31:58.449Z,95917.06
2023-05-06T20:34:25.606Z,95905.50
2023-05-06T20:36:54.329Z,95918.00
2023-05-06T20:39:21.933Z,95918.09
2023-05-06T20:41:48.433Z,95916.53
2023-05-06T20:44:15.094Z,95903.84
2023-05-06T20:46:41.552Z,95909.44
2023-05-06T20:49:08.041Z,95915.06
2023-05-06T20:51:34.535Z,95916.91
2023-05-06T20:54:01.321Z,95910.94
2023-05-06T20:56:28.347Z,95916.66
2023-05-06T20:58:55.863Z,95911.38
2023-05-06T21:01:23.890Z,95913.25
2023-05-06T21:03:50.808Z,95917.88
2023-05-06T21:06:18.174Z,95923.19
2023-05-06T21:08:46.297Z,95919.66
2023-05-06T21:11:13.725Z,95912.00
2023-05-06T21:13:40.756Z,95911.03
2023-05-06T21:16:07.563Z,95908.72
2023-05-06T21:18:35.877Z,95909.88
2023-05-06T21:21:02.525Z,95913.91
2023-05-06T21:23:29.059Z,95907.34
2023-05-06T21:25:55.663Z,95911.09
2023-05-06T21:28:22.194Z,95911.75
2023-05-06T21:30:48.699Z,95907.81
2023-05-06T21:33:15.215Z,95904.50
2023-05-06T21:35:41.705Z,95907.81
2023-05-06T21:38:08.276Z,95910.19
2023-05-06T21:40:34.785Z,95917.97
2023-05-06T21:43:02.238Z,95911.38
2023-05-06T21:45:29.107Z,95910.56
2023-05-06T21:47:55.788Z,95915.00
2023-05-06T21:50:22.428Z,95908.06
2023-05-06T21:52:48.912Z,95911.38
2023-05-06T21:55:15.569Z,95913.44
2023-05-06T21:57:43.455Z,95907.19
2023-05-06T22:00:12.405Z,95917.56
2023-05-06T22:02:40.314Z,95924.84
2023-05-06T22:05:07.974Z,95917.28
2023-05-06T22:07:35.686Z,95921.50
2023-05-06T22:10:02.232Z,95924.75
2023-05-06T22:12:28.748Z,95924.53
2023-05-06T22:14:55.241Z,95920.03
2023-05-06T22:17:22.241Z,95919.25
2023-05-06T22:19:49.003Z,95920.53
2023-05-06T22:22:16.160Z,95907.75
2023-05-06T22:24:42.745Z,95912.78
2023-05-06T22:27:09.347Z,95912.88
2023-05-06T22:29:36.030Z,95915.31
2023-05-06T22:32:03.287Z,95912.88
2023-05-06T22:34:29.966Z,95915.63
2023-05-06T22:36:58.332Z,95906.97
2023-05-06T22:39:26.842Z,95905.91
2023-05-06T22:41:53.460Z,95906.91
2023-05-06T22:44:20.020Z,95898.88
2023-05-06T22:46:46.665Z,95898.94
2023-05-06T22:49:14.458Z,95894.25
2023-05-06T22:51:41.312Z,95894.53
2023-05-06T22:54:07.746Z,95894.84
2023-05-06T22:56:34.231Z,95878.72
2023-05-06T22:59:00.877Z,95864.03
2023-05-06T23:01:32.013Z,95886.38
2023-05-06T23:03:59.614Z,95887.16
2023-05-06T23:06:27.665Z,95882.66
2023-05-06T23:08:54.422Z,95887.28
2023-05-06T23:11:20.905Z,95876.50
2023-05-06T23:13:47.707Z,95891.06
2023-05-06T23:16:14.711Z,95880.50
2023-05-06T23:18:41.614Z,95883.03
2023-05-06T23:21:08.578Z,95878.53
2023-05-06T23:23:35.306Z,95878.41
2023-05-06T23:26:01.837Z,95877.25
2023-05-06T23:28:28.596Z,95881.88
2023-05-06T23:30:55.128Z,95873.63
2023-05-06T23:33:21.679Z,95884.00
2023-05-06T23:35:48.363Z,95885.44
2023-05-06T23:38:14.855Z,95880.75
2023-05-06T23:40:41.311Z,95881.03
2023-05-06T23:43:09.828Z,95883.41
2023-05-06T23:45:36.411Z,95877.91
2023-05-06T23:48:03.366Z,95877.19
2023-05-06T23:50:29.920Z,95881.19
2023-05-06T23:52:56.406Z,95867.56
2023-05-06T23:55:22.885Z,95888.34
2023-05-06T23:57:49.442Z,95887.34
